sensor_id;sensor_type;location;lat;lon;timestamp;temperature;humidity
37456;DHT22;23316;50.718;7.328;2022-08-01T00:02:01;24.10;50.30
37456;DHT22;23316;50.718;7.328;2022-08-01T00:04:28;24.10;50.20
37456;DHT22;23316;50.718;7.328;2022-08-01T00:06:57;24.10;50.30
37456;DHT22;23316;50.718;7.328;2022-08-01T00:09:24;24.10;50.40
37456;DHT22;23316;50.718;7.328;2022-08-01T00:11:51;24.10;50.40
37456;DHT22;23316;50.718;7.328;2022-08-01T00:14:18;24.10;50.40
37456;DHT22;23316;50.718;7.328;2022-08-01T00:16:46;24.10;50.40
37456;DHT22;23316;50.718;7.328;2022-08-01T00:19:13;24.10;50.40
37456;DHT22;23316;50.718;7.328;2022-08-01T00:21:40;24.10;50.60
37456;DHT22;23316;50.718;7.328;2022-08-01T00:24:09;24.00;50.60
37456;DHT22;23316;50.718;7.328;2022-08-01T00:26:36;24.10;50.60
37456;DHT22;23316;50.718;7.328;2022-08-01T00:29:03;24.00;50.60
37456;DHT22;23316;50.718;7.328;2022-08-01T00:31:30;24.00;50.60
37456;DHT22;23316;50.718;7.328;2022-08-01T00:33:57;24.00;50.70
37456;DHT22;23316;50.718;7.328;2022-08-01T00:36:25;24.00;50.70
37456;DHT22;23316;50.718;7.328;2022-08-01T00:38:52;24.00;50.80
37456;DHT22;23316;50.718;7.328;2022-08-01T00:41:20;24.00;50.80
37456;DHT22;23316;50.718;7.328;2022-08-01T00:43:48;23.90;50.90
37456;DHT22;23316;50.718;7.328;2022-08-01T00:46:15;23.90;50.90
37456;DHT22;23316;50.718;7.328;2022-08-01T00:48:42;23.90;51.00
37456;DHT22;23316;50.718;7.328;2022-08-01T00:51:10;23.90;51.00
37456;DHT22;23316;50.718;7.328;2022-08-01T00:53:38;23.90;51.10
37456;DHT22;23316;50.718;7.328;2022-08-01T00:56:06;23.90;51.10
37456;DHT22;23316;50.718;7.328;2022-08-01T00:58:35;23.90;51.20
37456;DHT22;23316;50.718;7.328;2022-08-01T01:01:02;23.80;51.30
37456;DHT22;23316;50.718;7.328;2022-08-01T01:03:29;23.90;51.30
37456;DHT22;23316;50.718;7.328;2022-08-01T01:06:07;23.80;51.30
37456;DHT22;23316;50.718;7.328;2022-08-01T01:08:41;23.80;51.50
37456;DHT22;23316;50.718;7.328;2022-08-01T01:11:14;23.80;51.50
37456;DHT22;23316;50.718;7.328;2022-08-01T01:13:49;23.80;51.70
37456;DHT22;23316;50.718;7.328;2022-08-01T01:16:18;23.70;51.80
37456;DHT22;23316;50.718;7.328;2022-08-01T01:18:47;23.70;51.80
37456;DHT22;23316;50.718;7.328;2022-08-01T01:21:39;23.70;51.90
37456;DHT22;23316;50.718;7.328;2022-08-01T01:24:21;23.70;52.10
37456;DHT22;23316;50.718;7.328;2022-08-01T01:26:53;23.60;52.00
37456;DHT22;23316;50.718;7.328;2022-08-01T01:29:28;23.60;52.20
37456;DHT22;23316;50.718;7.328;2022-08-01T01:32:02;23.60;52.20
37456;DHT22;23316;50.718;7.328;2022-08-01T01:34:38;23.60;52.30
37456;DHT22;23316;50.718;7.328;2022-08-01T01:37:11;23.60;52.40
37456;DHT22;23316;50.718;7.328;2022-08-01T01:39:40;23.60;52.40
37456;DHT22;23316;50.718;7.328;2022-08-01T01:42:09;23.60;52.40
37456;DHT22;23316;50.718;7.328;2022-08-01T01:44:39;23.60;52.40
37456;DHT22;23316;50.718;7.328;2022-08-01T01:47:07;23.60;52.70
37456;DHT22;23316;50.718;7.328;2022-08-01T01:49:34;23.60;52.60
37456;DHT22;23316;50.718;7.328;2022-08-01T01:52:02;23.60;52.60
37456;DHT22;23316;50.718;7.328;2022-08-01T01:54:40;23.60;52.70
37456;DHT22;23316;50.718;7.328;2022-08-01T01:57:08;23.60;52.90
37456;DHT22;23316;50.718;7.328;2022-08-01T01:59:39;23.50;53.00
37456;DHT22;23316;50.718;7.328;2022-08-01T02:02:09;23.50;53.00
37456;DHT22;23316;50.718;7.328;2022-08-01T02:04:40;23.50;52.90
37456;DHT22;23316;50.718;7.328;2022-08-01T02:07:10;23.50;53.30
37456;DHT22;23316;50.718;7.328;2022-08-01T02:09:40;23.50;53.10
37456;DHT22;23316;50.718;7.328;2022-08-01T02:12:10;23.40;53.60
37456;DHT22;23316;50.718;7.328;2022-08-01T02:14:41;23.40;53.70
37456;DHT22;23316;50.718;7.328;2022-08-01T02:17:11;23.40;54.10
37456;DHT22;23316;50.718;7.328;2022-08-01T02:19:39;23.40;54.00
37456;DHT22;23316;50.718;7.328;2022-08-01T02:22:10;23.30;54.20
37456;DHT22;23316;50.718;7.328;2022-08-01T02:24:40;23.30;54.50
37456;DHT22;23316;50.718;7.328;2022-08-01T02:27:11;23.20;55.20
37456;DHT22;23316;50.718;7.328;2022-08-01T02:29:43;23.20;55.10
37456;DHT22;23316;50.718;7.328;2022-08-01T02:32:14;23.20;55.40
37456;DHT22;23316;50.718;7.328;2022-08-01T02:34:46;23.10;55.60
37456;DHT22;23316;50.718;7.328;2022-08-01T02:37:14;23.10;55.60
37456;DHT22;23316;50.718;7.328;2022-08-01T02:39:44;23.00;55.90
37456;DHT22;23316;50.718;7.328;2022-08-01T02:42:14;23.00;55.90
37456;DHT22;23316;50.718;7.328;2022-08-01T02:44:45;22.90;55.90
37456;DHT22;23316;50.718;7.328;2022-08-01T02:47:13;22.90;56.10
37456;DHT22;23316;50.718;7.328;2022-08-01T02:49:45;22.90;56.20
37456;DHT22;23316;50.718;7.328;2022-08-01T02:52:14;22.90;56.20
37456;DHT22;23316;50.718;7.328;2022-08-01T02:54:44;22.80;56.40
37456;DHT22;23316;50.718;7.328;2022-08-01T02:57:12;22.80;56.50
37456;DHT22;23316;50.718;7.328;2022-08-01T02:59:40;22.80;56.40
37456;DHT22;23316;50.718;7.328;2022-08-01T03:02:11;22.80;57.30
37456;DHT22;23316;50.718;7.328;2022-08-01T03:04:40;22.80;56.50
37456;DHT22;23316;50.718;7.328;2022-08-01T03:07:09;22.80;56.50
37456;DHT22;23316;50.718;7.328;2022-08-01T03:09:40;22.80;56.50
37456;DHT22;23316;50.718;7.328;2022-08-01T03:12:11;22.80;56.60
37456;DHT22;23316;50.718;7.328;2022-08-01T03:14:40;22.90;56.60
37456;DHT22;23316;50.718;7.328;2022-08-01T03:17:10;22.90;56.50
37456;DHT22;23316;50.718;7.328;2022-08-01T03:19:39;22.90;56.60
37456;DHT22;23316;50.718;7.328;2022-08-01T03:22:10;22.80;56.50
37456;DHT22;23316;50.718;7.328;2022-08-01T03:24:40;22.90;56.60
37456;DHT22;23316;50.718;7.328;2022-08-01T03:27:08;22.90;57.20
37456;DHT22;23316;50.718;7.328;2022-08-01T03:29:37;22.90;56.40
37456;DHT22;23316;50.718;7.328;2022-08-01T03:32:06;22.90;56.60
37456;DHT22;23316;50.718;7.328;2022-08-01T03:34:34;22.90;56.70
37456;DHT22;23316;50.718;7.328;2022-08-01T03:37:05;22.90;56.70
37456;DHT22;23316;50.718;7.328;2022-08-01T03:39:39;22.90;56.70
37456;DHT22;23316;50.718;7.328;2022-08-01T03:42:12;22.80;56.80
37456;DHT22;23316;50.718;7.328;2022-08-01T03:44:40;22.80;56.90
37456;DHT22;23316;50.718;7.328;2022-08-01T03:47:09;22.80;56.80
37456;DHT22;23316;50.718;7.328;2022-08-01T03:49:41;22.80;57.00
37456;DHT22;23316;50.718;7.328;2022-08-01T03:52:11;22.80;57.00
37456;DHT22;23316;50.718;7.328;2022-08-01T03:54:42;22.80;57.00
37456;DHT22;23316;50.718;7.328;2022-08-01T03:57:11;22.80;57.10
37456;DHT22;23316;50.718;7.328;2022-08-01T03:59:39;22.80;57.10
37456;DHT22;23316;50.718;7.328;2022-08-01T04:02:07;22.80;57.30
37456;DHT22;23316;50.718;7.328;2022-08-01T04:04:35;22.80;57.10
37456;DHT22;23316;50.718;7.328;2022-08-01T04:07:04;22.80;57.30
37456;DHT22;23316;50.718;7.328;2022-08-01T04:09:33;22.80;57.40
37456;DHT22;23316;50.718;7.328;2022-08-01T04:12:00;22.70;57.30
37456;DHT22;23316;50.718;7.328;2022-08-01T04:14:28;22.70;57.30
37456;DHT22;23316;50.718;7.328;2022-08-01T04:16:55;22.70;57.30
37456;DHT22;23316;50.718;7.328;2022-08-01T04:19:22;22.70;57.50
37456;DHT22;23316;50.718;7.328;2022-08-01T04:21:49;22.70;57.50
37456;DHT22;23316;50.718;7.328;2022-08-01T04:24:21;22.70;57.60
37456;DHT22;23316;50.718;7.328;2022-08-01T04:26:50;22.70;57.60
37456;DHT22;23316;50.718;7.328;2022-08-01T04:29:20;22.70;57.60
37456;DHT22;23316;50.718;7.328;2022-08-01T04:31:49;22.70;57.80
37456;DHT22;23316;50.718;7.328;2022-08-01T04:34:19;22.70;57.90
37456;DHT22;23316;50.718;7.328;2022-08-01T04:36:47;22.70;57.80
37456;DHT22;23316;50.718;7.328;2022-08-01T04:39:18;22.70;57.80
37456;DHT22;23316;50.718;7.328;2022-08-01T04:41:46;22.70;58.00
37456;DHT22;23316;50.718;7.328;2022-08-01T04:44:15;22.70;57.80
37456;DHT22;23316;50.718;7.328;2022-08-01T04:46:42;22.70;58.00
37456;DHT22;23316;50.718;7.328;2022-08-01T04:49:10;22.60;58.00
37456;DHT22;23316;50.718;7.328;2022-08-01T04:51:50;22.70;57.90
37456;DHT22;23316;50.718;7.328;2022-08-01T04:54:19;22.60;58.20
37456;DHT22;23316;50.718;7.328;2022-08-01T04:56:47;22.70;58.10
37456;DHT22;23316;50.718;7.328;2022-08-01T04:59:14;22.70;58.00
37456;DHT22;23316;50.718;7.328;2022-08-01T05:02:05;22.70;57.90
37456;DHT22;23316;50.718;7.328;2022-08-01T05:04:33;22.80;57.90
37456;DHT22;23316;50.718;7.328;2022-08-01T05:07:00;22.80;57.90
37456;DHT22;23316;50.718;7.328;2022-08-01T05:09:29;22.80;57.90
37456;DHT22;23316;50.718;7.328;2022-08-01T05:11:57;22.90;57.90
37456;DHT22;23316;50.718;7.328;2022-08-01T05:14:25;22.80;57.80
37456;DHT22;23316;50.718;7.328;2022-08-01T05:16:54;22.80;57.90
37456;DHT22;23316;50.718;7.328;2022-08-01T05:19:22;22.80;57.90
37456;DHT22;23316;50.718;7.328;2022-08-01T05:21:49;22.90;58.00
37456;DHT22;23316;50.718;7.328;2022-08-01T05:24:16;22.90;57.90
37456;DHT22;23316;50.718;7.328;2022-08-01T05:26:45;22.90;58.00
37456;DHT22;23316;50.718;7.328;2022-08-01T05:29:12;22.90;58.00
37456;DHT22;23316;50.718;7.328;2022-08-01T05:31:39;22.90;58.00
37456;DHT22;23316;50.718;7.328;2022-08-01T05:34:07;22.90;58.00
37456;DHT22;23316;50.718;7.328;2022-08-01T05:36:34;22.90;58.10
37456;DHT22;23316;50.718;7.328;2022-08-01T05:39:03;23.00;58.10
37456;DHT22;23316;50.718;7.328;2022-08-01T05:41:31;23.00;58.20
37456;DHT22;23316;50.718;7.328;2022-08-01T05:43:59;23.00;58.20
37456;DHT22;23316;50.718;7.328;2022-08-01T05:46:26;23.00;58.50
37456;DHT22;23316;50.718;7.328;2022-08-01T05:48:55;23.00;58.30
37456;DHT22;23316;50.718;7.328;2022-08-01T05:51:23;23.00;58.20
37456;DHT22;23316;50.718;7.328;2022-08-01T05:53:50;23.00;58.30
37456;DHT22;23316;50.718;7.328;2022-08-01T05:56:17;23.10;58.60
37456;DHT22;23316;50.718;7.328;2022-08-01T05:58:45;23.10;58.70
37456;DHT22;23316;50.718;7.328;2022-08-01T06:01:13;23.10;58.80
37456;DHT22;23316;50.718;7.328;2022-08-01T06:03:41;23.10;58.50
37456;DHT22;23316;50.718;7.328;2022-08-01T06:06:08;23.10;58.30
37456;DHT22;23316;50.718;7.328;2022-08-01T06:08:35;23.10;58.20
37456;DHT22;23316;50.718;7.328;2022-08-01T06:11:03;23.20;58.20
37456;DHT22;23316;50.718;7.328;2022-08-01T06:13:30;23.20;58.10
37456;DHT22;23316;50.718;7.328;2022-08-01T06:15:57;23.20;58.10
37456;DHT22;23316;50.718;7.328;2022-08-01T06:18:26;23.20;58.00
37456;DHT22;23316;50.718;7.328;2022-08-01T06:20:53;23.20;58.00
37456;DHT22;23316;50.718;7.328;2022-08-01T06:23:21;23.10;58.00
37456;DHT22;23316;50.718;7.328;2022-08-01T06:25:51;23.10;58.40
37456;DHT22;23316;50.718;7.328;2022-08-01T06:28:18;23.00;58.80
37456;DHT22;23316;50.718;7.328;2022-08-01T06:30:46;23.00;59.30
37456;DHT22;23316;50.718;7.328;2022-08-01T06:33:13;23.00;59.90
37456;DHT22;23316;50.718;7.328;2022-08-01T06:35:41;22.90;59.90
37456;DHT22;23316;50.718;7.328;2022-08-01T06:38:09;22.90;60.40
37456;DHT22;23316;50.718;7.328;2022-08-01T06:40:36;22.90;60.40
37456;DHT22;23316;50.718;7.328;2022-08-01T06:43:04;22.80;60.80
37456;DHT22;23316;50.718;7.328;2022-08-01T06:45:31;22.80;61.00
37456;DHT22;23316;50.718;7.328;2022-08-01T06:47:58;22.90;61.20
37456;DHT22;23316;50.718;7.328;2022-08-01T06:50:25;22.80;61.10
37456;DHT22;23316;50.718;7.328;2022-08-01T06:52:54;22.90;61.50
37456;DHT22;23316;50.718;7.328;2022-08-01T06:55:21;22.90;62.90
37456;DHT22;23316;50.718;7.328;2022-08-01T07:01:11;22.90;62.70
37456;DHT22;23316;50.718;7.328;2022-08-01T07:03:38;23.00;61.90
37456;DHT22;23316;50.718;7.328;2022-08-01T07:06:05;23.00;61.60
37456;DHT22;23316;50.718;7.328;2022-08-01T07:08:33;23.10;61.60
37456;DHT22;23316;50.718;7.328;2022-08-01T07:11:00;23.10;61.80
37456;DHT22;23316;50.718;7.328;2022-08-01T07:13:29;23.10;61.60
37456;DHT22;23316;50.718;7.328;2022-08-01T07:15:57;23.00;61.40
37456;DHT22;23316;50.718;7.328;2022-08-01T07:18:24;23.10;61.60
37456;DHT22;23316;50.718;7.328;2022-08-01T07:20:51;23.10;61.80
37456;DHT22;23316;50.718;7.328;2022-08-01T07:23:18;23.10;62.00
37456;DHT22;23316;50.718;7.328;2022-08-01T07:25:47;23.00;62.00
37456;DHT22;23316;50.718;7.328;2022-08-01T07:28:16;23.10;62.30
37456;DHT22;23316;50.718;7.328;2022-08-01T07:30:43;23.10;62.70
37456;DHT22;23316;50.718;7.328;2022-08-01T07:33:11;23.10;62.90
37456;DHT22;23316;50.718;7.328;2022-08-01T07:35:38;23.20;62.80
37456;DHT22;23316;50.718;7.328;2022-08-01T07:38:06;23.30;62.80
37456;DHT22;23316;50.718;7.328;2022-08-01T07:40:33;23.30;62.80
37456;DHT22;23316;50.718;7.328;2022-08-01T07:43:02;23.30;62.50
37456;DHT22;23316;50.718;7.328;2022-08-01T07:45:29;23.40;62.30
37456;DHT22;23316;50.718;7.328;2022-08-01T07:48:02;23.40;62.30
37456;DHT22;23316;50.718;7.328;2022-08-01T07:50:29;23.40;62.60
37456;DHT22;23316;50.718;7.328;2022-08-01T07:52:56;23.50;63.00
37456;DHT22;23316;50.718;7.328;2022-08-01T07:55:24;23.50;63.00
37456;DHT22;23316;50.718;7.328;2022-08-01T07:57:51;23.60;62.70
37456;DHT22;23316;50.718;7.328;2022-08-01T08:00:20;23.60;62.50
37456;DHT22;23316;50.718;7.328;2022-08-01T08:02:47;23.70;62.20
37456;DHT22;23316;50.718;7.328;2022-08-01T08:05:14;23.70;61.70
37456;DHT22;23316;50.718;7.328;2022-08-01T08:07:41;23.80;61.70
37456;DHT22;23316;50.718;7.328;2022-08-01T08:10:09;23.90;61.70
37456;DHT22;23316;50.718;7.328;2022-08-01T08:12:36;23.90;61.40
37456;DHT22;23316;50.718;7.328;2022-08-01T08:15:04;24.00;60.80
37456;DHT22;23316;50.718;7.328;2022-08-01T08:17:34;24.00;60.40
37456;DHT22;23316;50.718;7.328;2022-08-01T08:20:02;24.10;60.40
37456;DHT22;23316;50.718;7.328;2022-08-01T08:22:29;24.20;60.20
37456;DHT22;23316;50.718;7.328;2022-08-01T08:24:56;24.20;59.70
37456;DHT22;23316;50.718;7.328;2022-08-01T08:27:23;24.20;58.90
37456;DHT22;23316;50.718;7.328;2022-08-01T08:29:51;24.30;58.90
37456;DHT22;23316;50.718;7.328;2022-08-01T08:32:18;24.30;59.00
37456;DHT22;23316;50.718;7.328;2022-08-01T08:34:46;24.40;58.70
37456;DHT22;23316;50.718;7.328;2022-08-01T08:37:14;24.40;58.20
37456;DHT22;23316;50.718;7.328;2022-08-01T08:39:41;24.40;58.30
37456;DHT22;23316;50.718;7.328;2022-08-01T08:42:09;24.50;58.40
37456;DHT22;23316;50.718;7.328;2022-08-01T08:44:36;24.50;57.50
37456;DHT22;23316;50.718;7.328;2022-08-01T08:47:05;24.50;56.80
37456;DHT22;23316;50.718;7.328;2022-08-01T08:49:35;24.50;57.10
37456;DHT22;23316;50.718;7.328;2022-08-01T08:52:04;24.60;57.50
37456;DHT22;23316;50.718;7.328;2022-08-01T08:54:32;24.60;57.00
37456;DHT22;23316;50.718;7.328;2022-08-01T08:57:00;24.60;57.00
37456;DHT22;23316;50.718;7.328;2022-08-01T08:59:28;24.60;56.90
37456;DHT22;23316;50.718;7.328;2022-08-01T09:01:56;24.60;56.80
37456;DHT22;23316;50.718;7.328;2022-08-01T09:04:23;24.60;56.80
37456;DHT22;23316;50.718;7.328;2022-08-01T09:06:51;24.50;56.30
37456;DHT22;23316;50.718;7.328;2022-08-01T09:09:19;24.50;56.70
37456;DHT22;23316;50.718;7.328;2022-08-01T09:11:47;24.50;57.10
37456;DHT22;23316;50.718;7.328;2022-08-01T09:14:15;24.40;56.80
37456;DHT22;23316;50.718;7.328;2022-08-01T09:16:58;24.40;57.30
37456;DHT22;23316;50.718;7.328;2022-08-01T09:19:34;24.30;56.50
37456;DHT22;23316;50.718;7.328;2022-08-01T09:22:03;24.20;56.40
37456;DHT22;23316;50.718;7.328;2022-08-01T09:24:33;24.20;56.50
37456;DHT22;23316;50.718;7.328;2022-08-01T09:27:01;24.10;56.90
37456;DHT22;23316;50.718;7.328;2022-08-01T09:29:42;24.10;57.20
37456;DHT22;23316;50.718;7.328;2022-08-01T09:32:10;24.10;57.60
37456;DHT22;23316;50.718;7.328;2022-08-01T09:34:37;24.10;57.20
37456;DHT22;23316;50.718;7.328;2022-08-01T09:37:04;24.10;56.80
37456;DHT22;23316;50.718;7.328;2022-08-01T09:39:35;24.10;56.80
37456;DHT22;23316;50.718;7.328;2022-08-01T09:42:19;24.10;56.60
37456;DHT22;23316;50.718;7.328;2022-08-01T09:44:46;24.10;57.10
37456;DHT22;23316;50.718;7.328;2022-08-01T09:47:14;24.10;57.00
37456;DHT22;23316;50.718;7.328;2022-08-01T09:49:43;24.20;57.30
37456;DHT22;23316;50.718;7.328;2022-08-01T09:52:13;24.20;57.20
37456;DHT22;23316;50.718;7.328;2022-08-01T09:54:43;24.20;56.50
37456;DHT22;23316;50.718;7.328;2022-08-01T09:57:13;24.20;56.50
37456;DHT22;23316;50.718;7.328;2022-08-01T09:59:42;24.30;55.50
37456;DHT22;23316;50.718;7.328;2022-08-01T10:02:11;24.30;55.80
37456;DHT22;23316;50.718;7.328;2022-08-01T10:04:48;24.30;54.90
37456;DHT22;23316;50.718;7.328;2022-08-01T10:07:16;24.40;54.60
37456;DHT22;23316;50.718;7.328;2022-08-01T10:09:45;24.40;54.20
37456;DHT22;23316;50.718;7.328;2022-08-01T10:12:15;24.30;53.90
37456;DHT22;23316;50.718;7.328;2022-08-01T10:14:44;24.40;54.20
37456;DHT22;23316;50.718;7.328;2022-08-01T10:17:14;24.40;55.00
37456;DHT22;23316;50.718;7.328;2022-08-01T10:19:42;24.40;56.10
37456;DHT22;23316;50.718;7.328;2022-08-01T10:22:12;24.50;54.30
37456;DHT22;23316;50.718;7.328;2022-08-01T10:24:45;24.50;54.60
37456;DHT22;23316;50.718;7.328;2022-08-01T10:27:15;24.50;53.20
37456;DHT22;23316;50.718;7.328;2022-08-01T10:29:47;24.60;53.20
37456;DHT22;23316;50.718;7.328;2022-08-01T10:32:17;24.60;53.60
37456;DHT22;23316;50.718;7.328;2022-08-01T10:34:44;24.70;53.70
37456;DHT22;23316;50.718;7.328;2022-08-01T10:37:13;24.80;53.10
37456;DHT22;23316;50.718;7.328;2022-08-01T10:39:40;24.80;53.50
37456;DHT22;23316;50.718;7.328;2022-08-01T10:42:10;24.80;53.20
37456;DHT22;23316;50.718;7.328;2022-08-01T10:44:38;24.90;52.00
37456;DHT22;23316;50.718;7.328;2022-08-01T10:47:09;25.00;52.90
37456;DHT22;23316;50.718;7.328;2022-08-01T10:49:43;25.10;52.30
37456;DHT22;23316;50.718;7.328;2022-08-01T10:52:15;25.20;51.60
37456;DHT22;23316;50.718;7.328;2022-08-01T10:54:43;25.30;51.80
37456;DHT22;23316;50.718;7.328;2022-08-01T10:57:12;25.40;51.40
37456;DHT22;23316;50.718;7.328;2022-08-01T10:59:48;25.50;51.90
37456;DHT22;23316;50.718;7.328;2022-08-01T11:02:26;25.60;51.70
37456;DHT22;23316;50.718;7.328;2022-08-01T11:04:56;25.80;51.20
37456;DHT22;23316;50.718;7.328;2022-08-01T11:07:42;25.90;51.20
37456;DHT22;23316;50.718;7.328;2022-08-01T11:10:19;26.00;50.20
37456;DHT22;23316;50.718;7.328;2022-08-01T11:12:47;26.00;49.50
37456;DHT22;23316;50.718;7.328;2022-08-01T11:15:22;26.00;49.50
37456;DHT22;23316;50.718;7.328;2022-08-01T11:17:55;26.00;49.90
37456;DHT22;23316;50.718;7.328;2022-08-01T11:20:24;26.00;49.70
37456;DHT22;23316;50.718;7.328;2022-08-01T11:23:25;25.90;49.00
37456;DHT22;23316;50.718;7.328;2022-08-01T11:26:21;25.90;49.20
37456;DHT22;23316;50.718;7.328;2022-08-01T11:29:18;25.90;49.70
37456;DHT22;23316;50.718;7.328;2022-08-01T11:31:45;25.90;49.90
37456;DHT22;23316;50.718;7.328;2022-08-01T11:34:12;25.90;49.30
37456;DHT22;23316;50.718;7.328;2022-08-01T11:36:40;25.90;49.10
37456;DHT22;23316;50.718;7.328;2022-08-01T11:39:15;25.90;49.70
37456;DHT22;23316;50.718;7.328;2022-08-01T11:41:43;26.00;49.50
37456;DHT22;23316;50.718;7.328;2022-08-01T11:44:13;26.00;49.50
37456;DHT22;23316;50.718;7.328;2022-08-01T11:46:53;26.10;49.80
37456;DHT22;23316;50.718;7.328;2022-08-01T11:49:25;26.20;49.80
37456;DHT22;23316;50.718;7.328;2022-08-01T11:52:00;26.30;50.30
37456;DHT22;23316;50.718;7.328;2022-08-01T11:54:29;26.40;50.00
37456;DHT22;23316;50.718;7.328;2022-08-01T11:56:57;26.50;49.90
37456;DHT22;23316;50.718;7.328;2022-08-01T11:59:25;26.60;49.70
37456;DHT22;23316;50.718;7.328;2022-08-01T12:01:54;26.70;49.30
37456;DHT22;23316;50.718;7.328;2022-08-01T12:04:21;26.70;47.80
37456;DHT22;23316;50.718;7.328;2022-08-01T12:06:48;26.70;46.90
37456;DHT22;23316;50.718;7.328;2022-08-01T12:09:17;26.70;46.40
37456;DHT22;23316;50.718;7.328;2022-08-01T12:11:46;26.70;46.90
37456;DHT22;23316;50.718;7.328;2022-08-01T12:14:20;26.70;47.20
37456;DHT22;23316;50.718;7.328;2022-08-01T12:16:48;26.60;46.60
37456;DHT22;23316;50.718;7.328;2022-08-01T12:19:20;26.60;47.20
37456;DHT22;23316;50.718;7.328;2022-08-01T12:22:09;26.60;46.20
37456;DHT22;23316;50.718;7.328;2022-08-01T12:24:37;26.50;46.30
37456;DHT22;23316;50.718;7.328;2022-08-01T12:27:06;26.60;47.50
37456;DHT22;23316;50.718;7.328;2022-08-01T12:29:34;26.50;47.90
37456;DHT22;23316;50.718;7.328;2022-08-01T12:32:03;26.50;47.60
37456;DHT22;23316;50.718;7.328;2022-08-01T12:34:31;26.60;46.90
37456;DHT22;23316;50.718;7.328;2022-08-01T12:37:01;26.60;46.80
37456;DHT22;23316;50.718;7.328;2022-08-01T12:39:32;26.50;47.00
37456;DHT22;23316;50.718;7.328;2022-08-01T12:41:59;26.50;46.80
37456;DHT22;23316;50.718;7.328;2022-08-01T12:44:28;26.50;46.90
37456;DHT22;23316;50.718;7.328;2022-08-01T12:46:56;26.40;46.40
37456;DHT22;23316;50.718;7.328;2022-08-01T12:49:24;26.40;46.70
37456;DHT22;23316;50.718;7.328;2022-08-01T12:51:53;26.40;46.90
37456;DHT22;23316;50.718;7.328;2022-08-01T12:54:22;26.40;47.50
37456;DHT22;23316;50.718;7.328;2022-08-01T12:56:51;26.40;47.40
37456;DHT22;23316;50.718;7.328;2022-08-01T12:59:21;26.40;47.20
37456;DHT22;23316;50.718;7.328;2022-08-01T13:01:51;26.40;46.70
37456;DHT22;23316;50.718;7.328;2022-08-01T13:04:19;26.40;46.40
37456;DHT22;23316;50.718;7.328;2022-08-01T13:06:47;26.40;46.40
37456;DHT22;23316;50.718;7.328;2022-08-01T13:09:16;26.50;46.10
37456;DHT22;23316;50.718;7.328;2022-08-01T13:11:43;26.50;46.40
37456;DHT22;23316;50.718;7.328;2022-08-01T13:14:26;26.50;46.60
37456;DHT22;23316;50.718;7.328;2022-08-01T13:16:53;26.60;46.90
37456;DHT22;23316;50.718;7.328;2022-08-01T13:19:21;26.70;47.10
37456;DHT22;23316;50.718;7.328;2022-08-01T13:21:55;26.80;47.10
37456;DHT22;23316;50.718;7.328;2022-08-01T13:24:26;26.80;46.60
37456;DHT22;23316;50.718;7.328;2022-08-01T13:26:55;26.90;46.80
37456;DHT22;23316;50.718;7.328;2022-08-01T13:29:30;27.00;46.80
37456;DHT22;23316;50.718;7.328;2022-08-01T13:31:58;27.10;47.00
37456;DHT22;23316;50.718;7.328;2022-08-01T13:34:32;27.10;46.20
37456;DHT22;23316;50.718;7.328;2022-08-01T13:37:00;27.10;45.10
37456;DHT22;23316;50.718;7.328;2022-08-01T13:39:29;27.10;45.00
37456;DHT22;23316;50.718;7.328;2022-08-01T13:42:12;27.10;45.30
37456;DHT22;23316;50.718;7.328;2022-08-01T13:44:40;27.10;45.90
37456;DHT22;23316;50.718;7.328;2022-08-01T13:47:07;27.10;45.60
37456;DHT22;23316;50.718;7.328;2022-08-01T13:49:35;27.10;45.80
37456;DHT22;23316;50.718;7.328;2022-08-01T13:52:03;27.20;45.80
37456;DHT22;23316;50.718;7.328;2022-08-01T13:54:33;27.10;45.70
37456;DHT22;23316;50.718;7.328;2022-08-01T13:57:00;27.20;45.50
37456;DHT22;23316;50.718;7.328;2022-08-01T13:59:27;27.20;44.60
37456;DHT22;23316;50.718;7.328;2022-08-01T14:01:54;27.20;44.20
37456;DHT22;23316;50.718;7.328;2022-08-01T14:04:22;27.20;44.40
37456;DHT22;23316;50.718;7.328;2022-08-01T14:06:49;27.10;44.40
37456;DHT22;23316;50.718;7.328;2022-08-01T14:09:16;27.10;44.20
37456;DHT22;23316;50.718;7.328;2022-08-01T14:11:46;27.00;43.80
37456;DHT22;23316;50.718;7.328;2022-08-01T14:14:13;27.00;43.90
37456;DHT22;23316;50.718;7.328;2022-08-01T14:16:42;26.90;44.00
37456;DHT22;23316;50.718;7.328;2022-08-01T14:19:10;26.80;43.80
37456;DHT22;23316;50.718;7.328;2022-08-01T14:21:37;26.80;44.20
37456;DHT22;23316;50.718;7.328;2022-08-01T14:24:05;26.70;44.30
37456;DHT22;23316;50.718;7.328;2022-08-01T14:26:33;26.70;44.40
37456;DHT22;23316;50.718;7.328;2022-08-01T14:29:02;26.70;44.20
37456;DHT22;23316;50.718;7.328;2022-08-01T14:31:29;26.60;44.30
37456;DHT22;23316;50.718;7.328;2022-08-01T14:33:56;26.60;44.50
37456;DHT22;23316;50.718;7.328;2022-08-01T14:36:23;26.60;45.00
37456;DHT22;23316;50.718;7.328;2022-08-01T14:38:50;26.60;44.70
37456;DHT22;23316;50.718;7.328;2022-08-01T14:44:55;26.70;44.50
37456;DHT22;23316;50.718;7.328;2022-08-01T14:47:39;26.70;44.50
37456;DHT22;23316;50.718;7.328;2022-08-01T14:50:10;26.70;43.90
37456;DHT22;23316;50.718;7.328;2022-08-01T14:52:42;26.70;44.20
37456;DHT22;23316;50.718;7.328;2022-08-01T14:55:11;26.80;44.00
37456;DHT22;23316;50.718;7.328;2022-08-01T14:57:39;26.80;44.00
37456;DHT22;23316;50.718;7.328;2022-08-01T15:00:10;26.80;44.20
37456;DHT22;23316;50.718;7.328;2022-08-01T15:02:39;26.90;43.80
37456;DHT22;23316;50.718;7.328;2022-08-01T15:05:07;26.90;43.60
37456;DHT22;23316;50.718;7.328;2022-08-01T15:07:35;26.90;43.20
37456;DHT22;23316;50.718;7.328;2022-08-01T15:10:03;27.00;42.60
37456;DHT22;23316;50.718;7.328;2022-08-01T15:12:31;27.10;42.60
37456;DHT22;23316;50.718;7.328;2022-08-01T15:14:59;27.10;42.40
37456;DHT22;23316;50.718;7.328;2022-08-01T15:17:29;27.10;42.30
37456;DHT22;23316;50.718;7.328;2022-08-01T15:19:59;27.20;42.90
37456;DHT22;23316;50.718;7.328;2022-08-01T15:22:27;27.20;42.60
37456;DHT22;23316;50.718;7.328;2022-08-01T15:24:56;27.30;41.70
37456;DHT22;23316;50.718;7.328;2022-08-01T15:27:24;27.30;41.20
37456;DHT22;23316;50.718;7.328;2022-08-01T15:29:51;27.30;41.70
37456;DHT22;23316;50.718;7.328;2022-08-01T15:32:19;27.30;41.30
37456;DHT22;23316;50.718;7.328;2022-08-01T15:34:47;27.30;41.40
37456;DHT22;23316;50.718;7.328;2022-08-01T15:37:15;27.30;41.10
37456;DHT22;23316;50.718;7.328;2022-08-01T15:39:42;27.30;40.90
37456;DHT22;23316;50.718;7.328;2022-08-01T15:42:11;27.30;40.80
37456;DHT22;23316;50.718;7.328;2022-08-01T15:44:39;27.30;41.60
37456;DHT22;23316;50.718;7.328;2022-08-01T15:47:06;27.30;41.60
37456;DHT22;23316;50.718;7.328;2022-08-01T15:49:35;27.30;41.10
37456;DHT22;23316;50.718;7.328;2022-08-01T15:52:04;27.30;41.40